createdAt,value
2023-02-26T00:00:34.909Z,0.10
2023-02-26T00:03:01.712Z,0.17
2023-02-26T00:05:28.551Z,0.00
2023-02-26T00:07:56.224Z,0.10
2023-02-26T00:10:23.023Z,0.40
2023-02-26T00:12:49.721Z,0.17
2023-02-26T00:15:18.467Z,0.20
2023-02-26T00:18:06.184Z,0.47
2023-02-26T00:20:33.752Z,0.08
2023-02-26T00:23:00.860Z,0.05
2023-02-26T00:25:27.692Z,0.38
2023-02-26T00:27:54.642Z,0.10
2023-02-26T00:30:21.592Z,0.40
2023-02-26T00:32:48.565Z,0.20
2023-02-26T00:35:16.758Z,0.43
2023-02-26T00:37:49.837Z,0.32
2023-02-26T00:40:40.728Z,0.25
2023-02-26T00:43:10.110Z,0.10
2023-02-26T00:45:45.149Z,0.22
2023-02-26T00:48:42.170Z,0.60
2023-02-26T00:51:19.451Z,0.20
2023-02-26T00:54:08.011Z,0.00
2023-02-26T00:56:34.865Z,0.00
2023-02-26T00:59:02.054Z,0.77
2023-02-26T01:01:29.589Z,0.40
2023-02-26T01:03:56.729Z,0.00
2023-02-26T01:06:28.744Z,0.10
2023-02-26T01:09:05.821Z,0.55
2023-02-26T01:11:35.105Z,0.20
2023-02-26T01:14:02.693Z,0.52
2023-02-26T01:16:34.135Z,0.22
2023-02-26T01:19:15.176Z,0.20
2023-02-26T01:21:49.599Z,0.47
2023-02-26T01:24:19.330Z,0.52
2023-02-26T01:26:47.620Z,0.40
2023-02-26T01:29:14.449Z,0.68
2023-02-26T01:31:51.048Z,0.25
2023-02-26T01:34:37.727Z,0.20
2023-02-26T01:37:26.471Z,0.60
2023-02-26T01:40:28.492Z,0.95
2023-02-26T01:43:03.657Z,0.20
2023-02-26T01:45:35.119Z,0.00
2023-02-26T01:48:24.966Z,0.57
2023-02-26T01:50:51.632Z,0.00
2023-02-26T01:53:26.394Z,0.63
2023-02-26T01:55:58.278Z,0.40
2023-02-26T01:58:28.398Z,0.22
2023-02-26T02:00:55.068Z,0.38
2023-02-26T02:03:23.999Z,0.15
2023-02-26T02:06:02.796Z,0.40
2023-02-26T02:08:30.901Z,0.65
2023-02-26T02:10:57.796Z,0.38
2023-02-26T02:13:49.249Z,0.20
2023-02-26T02:16:43.727Z,0.40
2023-02-26T02:19:55.091Z,0.40
2023-02-26T02:22:50.900Z,0.17
2023-02-26T02:25:32.345Z,0.73
2023-02-26T02:28:14.203Z,0.28
2023-02-26T02:31:07.981Z,0.00
2023-02-26T02:33:41.916Z,0.20
2023-02-26T02:36:23.804Z,1.00
2023-02-26T02:38:57.035Z,0.30
2023-02-26T02:41:34.244Z,0.20
2023-02-26T02:44:05.121Z,0.00
2023-02-26T02:46:37.275Z,0.28
2023-02-26T02:49:11.442Z,0.10
2023-02-26T02:51:42.231Z,0.73
2023-02-26T02:54:30.559Z,0.30
2023-02-26T02:57:08.080Z,0.10
2023-02-26T02:59:51.174Z,0.35
2023-02-26T03:02:41.362Z,0.28
2023-02-26T03:05:08.512Z,0.85
2023-02-26T03:07:41.726Z,0.40
2023-02-26T03:10:09.295Z,0.38
2023-02-26T03:12:36.233Z,0.43
2023-02-26T03:15:03.306Z,0.32
2023-02-26T03:17:59.532Z,0.20
2023-02-26T03:20:33.638Z,1.10
2023-02-26T03:23:21.002Z,0.25
2023-02-26T03:25:55.079Z,0.20
2023-02-26T03:28:41.531Z,0.20
2023-02-26T03:31:30.743Z,0.20
2023-02-26T03:34:08.138Z,0.10
2023-02-26T03:36:47.070Z,0.10
2023-02-26T03:39:24.463Z,0.55
2023-02-26T03:42:01.832Z,0.05
2023-02-26T03:44:34.569Z,0.28
2023-02-26T03:47:06.980Z,0.20
2023-02-26T03:49:41.839Z,0.40
2023-02-26T03:52:08.735Z,0.00
2023-02-26T03:54:59.262Z,0.30
2023-02-26T03:57:25.987Z,0.35
2023-02-26T03:59:53.211Z,0.15
2023-02-26T04:02:33.359Z,0.50
2023-02-26T04:05:25.502Z,0.52
2023-02-26T04:07:52.401Z,0.25
2023-02-26T04:10:24.552Z,0.30
2023-02-26T04:12:51.108Z,0.05
2023-02-26T04:15:17.768Z,0.10
2023-02-26T04:17:44.580Z,0.00
2023-02-26T04:20:11.738Z,0.15
2023-02-26T04:22:38.896Z,0.20
2023-02-26T04:25:06.432Z,0.20
2023-02-26T04:27:33.198Z,0.43
2023-02-26T04:29:59.805Z,0.30
2023-02-26T04:32:26.555Z,0.40
2023-02-26T04:34:53.348Z,0.32
2023-02-26T04:37:20.090Z,0.10
2023-02-26T04:39:46.688Z,0.30
2023-02-26T04:42:13.274Z,0.28
2023-02-26T04:44:39.960Z,0.00
2023-02-26T04:47:06.584Z,0.25
2023-02-26T04:49:33.342Z,0.00
2023-02-26T04:52:00.460Z,0.03
2023-02-26T04:54:27.082Z,0.50
2023-02-26T04:56:53.710Z,0.20
2023-02-26T04:59:20.372Z,0.57
2023-02-26T05:01:46.913Z,1.42
2023-02-26T05:04:13.699Z,0.30
2023-02-26T05:06:40.340Z,0.35
2023-02-26T05:09:07.212Z,0.10
2023-02-26T05:11:33.884Z,0.03
2023-02-26T05:14:00.552Z,0.40
2023-02-26T05:16:27.557Z,0.38
2023-02-26T05:18:54.428Z,0.20
2023-02-26T05:21:21.859Z,0.15
2023-02-26T05:23:48.598Z,0.28
2023-02-26T05:26:15.206Z,0.00
2023-02-26T05:28:45.547Z,0.60
2023-02-26T05:31:13.959Z,0.28
2023-02-26T05:33:41.559Z,0.15
2023-02-26T05:36:08.364Z,0.30
2023-02-26T05:38:35.040Z,1.00
2023-02-26T05:41:01.771Z,0.25
2023-02-26T05:43:28.716Z,0.52
2023-02-26T05:45:56.019Z,0.10
2023-02-26T05:48:23.523Z,0.08
2023-02-26T05:50:51.164Z,0.28
2023-02-26T05:53:18.150Z,0.57
2023-02-26T05:55:45.074Z,0.22
2023-02-26T05:58:11.761Z,0.40
2023-02-26T06:00:38.418Z,0.10
2023-02-26T06:03:05.225Z,0.20
2023-02-26T06:05:31.993Z,0.32
2023-02-26T06:07:58.621Z,0.20
2023-02-26T06:10:25.197Z,0.10
2023-02-26T06:12:51.846Z,0.17
2023-02-26T06:15:18.492Z,0.55
2023-02-26T06:17:45.095Z,0.52
2023-02-26T06:20:12.944Z,0.00
2023-02-26T06:22:39.623Z,0.10
2023-02-26T06:25:07.480Z,0.17
2023-02-26T06:27:34.288Z,0.20
2023-02-26T06:30:01.107Z,0.00
2023-02-26T06:32:30.507Z,0.10
2023-02-26T06:34:57.716Z,0.10
2023-02-26T06:37:24.737Z,0.20
2023-02-26T06:39:51.805Z,0.25
2023-02-26T06:42:20.123Z,0.05
2023-02-26T06:44:47.074Z,0.55
2023-02-26T06:47:13.794Z,0.20
2023-02-26T06:49:40.660Z,0.35
2023-02-26T06:52:07.502Z,0.30
2023-02-26T06:54:34.129Z,0.65
2023-02-26T06:57:02.602Z,0.35
2023-02-26T06:59:29.191Z,0.20
2023-02-26T07:01:57.244Z,0.47
2023-02-26T07:04:24.090Z,0.35
2023-02-26T07:06:50.899Z,0.00
2023-02-26T07:09:19.791Z,0.45
2023-02-26T07:11:46.594Z,0.10
2023-02-26T07:14:13.377Z,0.03
2023-02-26T07:16:40.246Z,0.22
2023-02-26T07:19:06.926Z,0.00
2023-02-26T07:21:33.756Z,0.40
2023-02-26T07:24:01.489Z,0.35
2023-02-26T07:26:28.510Z,0.43
2023-02-26T07:28:55.436Z,0.32
2023-02-26T07:31:22.148Z,0.45
2023-02-26T07:33:48.829Z,0.10
2023-02-26T07:36:15.449Z,0.25
2023-02-26T07:38:42.072Z,0.30
2023-02-26T07:41:09.402Z,0.45
2023-02-26T07:43:36.371Z,0.45
2023-02-26T07:46:04.017Z,0.10
2023-02-26T07:48:30.639Z,0.43
2023-02-26T07:50:57.939Z,0.20
2023-02-26T07:53:24.712Z,1.00
2023-02-26T07:55:51.441Z,0.20
2023-02-26T07:58:18.985Z,0.43
2023-02-26T08:00:45.578Z,1.13
2023-02-26T08:03:12.371Z,0.52
2023-02-26T08:05:39.173Z,0.95
2023-02-26T08:08:05.782Z,0.25
2023-02-26T08:10:32.578Z,0.47
2023-02-26T08:12:59.217Z,0.63
2023-02-26T08:15:25.776Z,0.35
2023-02-26T08:17:53.774Z,0.63
2023-02-26T08:20:21.038Z,1.27
2023-02-26T08:22:47.699Z,0.60
2023-02-26T08:25:16.170Z,0.45
2023-02-26T08:27:42.918Z,0.73
2023-02-26T08:30:11.184Z,0.40
2023-02-26T08:32:40.054Z,0.40
2023-02-26T08:35:07.131Z,0.65
2023-02-26T08:37:33.953Z,0.28
2023-02-26T08:40:00.643Z,0.52
2023-02-26T08:42:27.427Z,0.13
2023-02-26T08:44:54.133Z,0.43
2023-02-26T08:47:28.506Z,0.20
2023-02-26T08:49:55.769Z,0.60
2023-02-26T08:52:22.598Z,0.10
2023-02-26T08:54:49.355Z,0.43
2023-02-26T08:57:16.119Z,0.82
2023-02-26T08:59:43.643Z,0.47
2023-02-26T09:02:12.088Z,0.30
2023-02-26T09:04:38.741Z,0.45
2023-02-26T09:07:05.754Z,0.80
2023-02-26T09:09:32.407Z,0.52
2023-02-26T09:11:59.455Z,0.57
2023-02-26T09:14:26.260Z,0.75
2023-02-26T09:16:53.096Z,0.20
2023-02-26T09:19:19.766Z,0.68
2023-02-26T09:21:46.505Z,0.20
2023-02-26T09:24:13.261Z,0.43
2023-02-26T09:26:40.067Z,0.55
2023-02-26T09:29:06.718Z,0.47
2023-02-26T09:31:33.938Z,1.58
2023-02-26T09:34:00.866Z,0.35
2023-02-26T09:36:28.297Z,0.60
2023-02-26T09:38:55.090Z,0.10
2023-02-26T09:41:33.534Z,0.17
2023-02-26T09:44:17.347Z,0.10
2023-02-26T09:47:07.633Z,0.13
2023-02-26T09:50:06.136Z,0.10
2023-02-26T09:52:51.664Z,0.50
2023-02-26T09:55:43.582Z,0.10
2023-02-26T09:58:35.449Z,0.30
2023-02-26T10:01:12.228Z,0.03
2023-02-26T10:03:39.038Z,0.35
2023-02-26T10:06:29.313Z,0.10
2023-02-26T10:09:30.620Z,0.28
2023-02-26T10:12:03.487Z,0.20
2023-02-26T10:14:55.198Z,0.20
2023-02-26T10:17:46.545Z,0.60
2023-02-26T10:20:29.205Z,0.17
2023-02-26T10:23:25.068Z,0.22
2023-02-26T10:26:14.260Z,0.25
2023-02-26T10:29:07.113Z,0.22
2023-02-26T10:31:51.323Z,0.20
2023-02-26T10:34:44.688Z,0.30
2023-02-26T10:37:40.132Z,0.20
2023-02-26T10:40:32.223Z,0.30
2023-02-26T10:43:04.118Z,0.10
2023-02-26T10:46:00.553Z,0.50
2023-02-26T10:48:55.779Z,0.30
2023-02-26T10:51:28.516Z,0.50
2023-02-26T10:54:05.388Z,0.30
2023-02-26T10:56:34.693Z,0.30
2023-02-26T10:59:01.852Z,0.40
2023-02-26T11:01:30.900Z,0.40
2023-02-26T11:04:09.046Z,0.38
2023-02-26T11:06:45.660Z,0.20
2023-02-26T11:09:21.201Z,0.50
2023-02-26T11:12:06.298Z,0.63
2023-02-26T11:14:34.340Z,0.20
2023-02-26T11:17:04.385Z,0.35
2023-02-26T11:19:41.354Z,0.10
2023-02-26T11:22:12.526Z,0.70
2023-02-26T11:24:44.613Z,0.50
2023-02-26T11:27:27.092Z,0.60
2023-02-26T11:30:03.009Z,0.55
2023-02-26T11:32:36.869Z,0.60
2023-02-26T11:35:08.400Z,0.40
2023-02-26T11:37:38.663Z,0.50
2023-02-26T11:40:16.061Z,0.50
2023-02-26T11:42:52.742Z,0.38
2023-02-26T11:45:21.296Z,0.63
2023-02-26T11:47:50.056Z,0.25
2023-02-26T11:50:25.961Z,0.65
2023-02-26T11:53:04.289Z,0.38
2023-02-26T11:55:39.915Z,0.22
2023-02-26T11:58:21.908Z,0.20
2023-02-26T12:00:51.750Z,0.38
2023-02-26T12:03:23.120Z,0.52
2023-02-26T12:05:53.361Z,0.80
2023-02-26T12:08:27.605Z,0.28
2023-02-26T12:11:15.393Z,0.63
2023-02-26T12:13:56.656Z,0.20
2023-02-26T12:16:37.562Z,0.50
2023-02-26T12:19:07.551Z,0.38
2023-02-26T12:22:10.854Z,0.22
2023-02-26T12:25:04.164Z,0.22
2023-02-26T12:27:54.597Z,0.40
2023-02-26T12:30:41.256Z,0.38
2023-02-26T12:33:21.470Z,0.40
2023-02-26T12:36:10.026Z,0.30
2023-02-26T12:39:07.697Z,0.47
2023-02-26T12:41:56.035Z,0.38
2023-02-26T12:44:41.438Z,1.52
2023-02-26T12:47:20.900Z,0.50
2023-02-26T12:50:11.187Z,0.38
2023-02-26T12:52:51.304Z,0.35
2023-02-26T12:55:29.091Z,0.60
2023-02-26T12:58:17.606Z,0.68
2023-02-26T13:01:05.145Z,0.63
2023-02-26T13:03:45.522Z,0.45
2023-02-26T13:06:41.823Z,0.20
2023-02-26T13:09:33.179Z,0.60
2023-02-26T13:12:33.066Z,0.47
2023-02-26T13:15:17.856Z,0.15
2023-02-26T13:17:58.900Z,0.32
2023-02-26T13:20:27.789Z,0.70
2023-02-26T13:23:20.168Z,0.32
2023-02-26T13:26:01.258Z,0.30
2023-02-26T13:28:45.142Z,0.43
2023-02-26T13:31:17.673Z,0.40
2023-02-26T13:33:46.132Z,0.70
2023-02-26T13:36:15.839Z,0.25
2023-02-26T13:38:53.341Z,0.60
2023-02-26T13:41:41.570Z,0.30
2023-02-26T13:44:39.535Z,0.47
2023-02-26T13:47:30.164Z,0.40
2023-02-26T13:50:23.630Z,0.40
2023-02-26T13:52:56.283Z,0.60
2023-02-26T13:55:44.272Z,0.63
2023-02-26T13:58:23.203Z,0.20
2023-02-26T14:01:09.666Z,0.22
2023-02-26T14:03:59.170Z,0.40
2023-02-26T14:06:39.465Z,0.50
2023-02-26T14:09:28.957Z,0.30
2023-02-26T14:11:55.609Z,0.43
2023-02-26T14:14:22.101Z,0.50
2023-02-26T14:17:13.616Z,0.25
2023-02-26T14:19:52.124Z,0.25
2023-02-26T14:22:30.387Z,0.47
2023-02-26T14:25:12.273Z,0.30
2023-02-26T14:27:44.011Z,0.22
2023-02-26T14:30:10.537Z,0.47
2023-02-26T14:33:09.675Z,0.50
2023-02-26T14:35:49.385Z,0.45
2023-02-26T14:38:23.862Z,0.45
2023-02-26T14:41:26.777Z,0.10
2023-02-26T14:44:15.920Z,0.32
2023-02-26T14:46:43.984Z,0.50
2023-02-26T14:49:21.168Z,0.55
2023-02-26T14:52:15.131Z,0.20
2023-02-26T14:55:00.230Z,0.40
2023-02-26T14:57:53.211Z,0.52
2023-02-26T15:00:39.143Z,0.30
2023-02-26T15:03:39.849Z,0.30
2023-02-26T15:06:40.391Z,0.25
2023-02-26T15:09:38.791Z,0.20
2023-02-26T15:12:36.237Z,0.35
2023-02-26T15:15:36.550Z,0.40
2023-02-26T15:18:27.997Z,0.47
2023-02-26T15:21:04.425Z,0.73
2023-02-26T15:23:47.683Z,0.25
2023-02-26T15:26:23.064Z,0.57
2023-02-26T15:28:50.713Z,0.38
2023-02-26T15:31:20.860Z,0.20
2023-02-26T15:33:50.585Z,0.30
2023-02-26T15:36:21.918Z,0.35
2023-02-26T15:38:54.760Z,0.45
2023-02-26T15:41:22.686Z,0.50
2023-02-26T15:43:53.712Z,0.50
2023-02-26T15:46:23.328Z,0.50
2023-02-26T15:48:50.326Z,0.40
2023-02-26T15:51:20.006Z,0.38
2023-02-26T15:53:49.760Z,0.40
2023-02-26T15:56:24.487Z,0.47
2023-02-26T15:59:06.480Z,0.43
2023-02-26T16:01:34.136Z,0.50
2023-02-26T16:04:03.877Z,0.50
2023-02-26T16:06:35.449Z,0.45
2023-02-26T16:09:04.160Z,0.20
2023-02-26T16:11:36.791Z,0.32
2023-02-26T16:14:04.901Z,0.50
2023-02-26T16:16:45.033Z,0.50
2023-02-26T16:19:17.158Z,0.70
2023-02-26T16:21:44.605Z,0.45
2023-02-26T16:24:17.425Z,0.50
2023-02-26T16:26:51.002Z,0.35
2023-02-26T16:29:48.967Z,0.30
2023-02-26T16:32:16.088Z,0.50
2023-02-26T16:34:54.427Z,0.52
2023-02-26T16:37:31.632Z,0.32
2023-02-26T16:40:05.004Z,0.43
2023-02-26T16:42:46.730Z,0.22
2023-02-26T16:45:20.261Z,0.52
2023-02-26T16:47:51.482Z,0.40
2023-02-26T16:50:21.147Z,0.30
2023-02-26T16:53:18.559Z,0.30
2023-02-26T16:55:56.294Z,0.40
2023-02-26T16:58:24.199Z,0.43
2023-02-26T17:01:01.608Z,0.63
2023-02-26T17:03:30.395Z,0.68
2023-02-26T17:06:03.808Z,0.28
2023-02-26T17:08:53.252Z,0.80
2023-02-26T17:11:38.448Z,0.50
2023-02-26T17:14:10.533Z,0.75
2023-02-26T17:16:37.198Z,0.60
2023-02-26T17:19:04.385Z,0.52
2023-02-26T17:21:32.133Z,0.30
2023-02-26T17:23:59.363Z,0.50
2023-02-26T17:26:26.071Z,0.28
2023-02-26T17:28:52.716Z,0.75
2023-02-26T17:31:20.259Z,0.30
2023-02-26T17:33:46.881Z,0.50
2023-02-26T17:36:18.465Z,0.60
2023-02-26T17:38:47.094Z,0.47
2023-02-26T17:41:18.441Z,0.63
2023-02-26T17:43:45.072Z,0.40
2023-02-26T17:46:12.699Z,0.57
2023-02-26T17:48:39.644Z,0.43
2023-02-26T17:51:07.083Z,0.55
2023-02-26T17:53:40.753Z,0.93
2023-02-26T17:56:14.483Z,0.40
2023-02-26T17:58:41.454Z,0.60
2023-02-26T18:01:10.162Z,0.60
2023-02-26T18:03:38.378Z,0.82
2023-02-26T18:06:05.961Z,0.50
2023-02-26T18:08:36.055Z,1.10
2023-02-26T18:11:04.136Z,0.65
2023-02-26T18:13:31.268Z,0.40
2023-02-26T18:15:58.753Z,0.85
2023-02-26T18:18:26.715Z,0.60
2023-02-26T18:20:53.778Z,0.70
2023-02-26T18:23:20.637Z,0.98
2023-02-26T18:25:49.596Z,0.32
2023-02-26T18:28:25.521Z,0.32
2023-02-26T18:30:53.438Z,0.52
2023-02-26T18:33:21.201Z,0.70
2023-02-26T18:35:52.918Z,0.20
2023-02-26T18:38:22.876Z,0.77
2023-02-26T18:40:49.813Z,0.90
2023-02-26T18:43:16.611Z,0.52
2023-02-26T18:45:46.092Z,1.38
2023-02-26T18:48:18.135Z,0.98
2023-02-26T18:50:46.172Z,1.00
2023-02-26T18:53:17.090Z,0.80
2023-02-26T18:55:44.380Z,0.75
2023-02-26T18:58:11.527Z,0.70
2023-02-26T19:00:38.207Z,0.70
2023-02-26T19:03:04.890Z,0.75
2023-02-26T19:05:31.498Z,1.23
2023-02-26T19:07:59.659Z,1.35
2023-02-26T19:10:29.408Z,1.88
2023-02-26T19:12:57.034Z,1.23
2023-02-26T19:15:24.809Z,0.90
2023-02-26T19:17:51.508Z,1.27
2023-02-26T19:20:18.284Z,1.15
2023-02-26T19:22:46.410Z,1.00
2023-02-26T19:25:13.923Z,1.67
2023-02-26T19:27:41.253Z,1.13
2023-02-26T19:30:09.054Z,1.50
2023-02-26T19:32:35.913Z,2.55
2023-02-26T19:35:02.682Z,2.95
2023-02-26T19:37:29.302Z,5.80
2023-02-26T19:39:55.874Z,2.25
2023-02-26T19:42:24.237Z,2.00
2023-02-26T19:44:50.829Z,0.95
2023-02-26T19:47:17.430Z,1.48
2023-02-26T19:49:44.206Z,2.40
2023-02-26T19:52:11.394Z,1.77
2023-02-26T19:54:38.217Z,1.83
2023-02-26T19:57:04.795Z,1.85
2023-02-26T19:59:32.439Z,1.15
2023-02-26T20:01:59.051Z,1.80
2023-02-26T20:04:25.745Z,1.25
2023-02-26T20:06:52.378Z,1.30
2023-02-26T20:09:20.301Z,0.85
2023-02-26T20:11:47.092Z,1.30
2023-02-26T20:14:14.335Z,1.52
2023-02-26T20:16:41.644Z,1.23
2023-02-26T20:19:08.442Z,1.27
2023-02-26T20:21:35.451Z,1.02
2023-02-26T20:24:02.136Z,1.00
2023-02-26T20:26:28.950Z,0.80
2023-02-26T20:28:55.564Z,1.30
2023-02-26T20:31:22.328Z,1.00
2023-02-26T20:33:49.087Z,1.10
2023-02-26T20:36:15.731Z,1.63
2023-02-26T20:38:42.939Z,1.35
2023-02-26T20:41:09.882Z,1.45
2023-02-26T20:43:36.691Z,1.42
2023-02-26T20:46:03.673Z,1.20
2023-02-26T20:48:31.146Z,0.93
2023-02-26T20:51:03.062Z,1.05
2023-02-26T20:53:29.635Z,1.02
2023-02-26T20:55:56.484Z,1.25
2023-02-26T20:58:24.199Z,1.20
2023-02-26T21:00:51.603Z,1.60
2023-02-26T21:03:18.323Z,1.45
2023-02-26T21:05:46.957Z,0.70
2023-02-26T21:08:14.108Z,1.92
2023-02-26T21:10:41.271Z,1.08
2023-02-26T21:13:09.493Z,1.05
2023-02-26T21:15:36.783Z,1.92
2023-02-26T21:18:05.092Z,1.63
2023-02-26T21:20:32.104Z,1.08
2023-02-26T21:22:58.858Z,0.70
2023-02-26T21:25:25.828Z,1.15
2023-02-26T21:27:52.733Z,0.80
2023-02-26T21:30:19.900Z,1.17
2023-02-26T21:32:46.744Z,1.80
2023-02-26T21:35:15.828Z,1.05
2023-02-26T21:37:46.488Z,0.88
2023-02-26T21:40:14.552Z,0.95
2023-02-26T21:42:42.722Z,0.52
2023-02-26T21:45:09.959Z,0.90
2023-02-26T21:47:38.594Z,1.08
2023-02-26T21:50:06.311Z,1.23
2023-02-26T21:52:33.118Z,1.13
2023-02-26T21:54:59.860Z,1.05
2023-02-26T21:57:27.233Z,0.77
2023-02-26T21:59:53.937Z,1.23
2023-02-26T22:02:20.845Z,1.08
2023-02-26T22:04:47.615Z,1.05
2023-02-26T22:07:14.263Z,1.02
2023-02-26T22:09:41.781Z,1.05
2023-02-26T22:12:08.398Z,1.05
2023-02-26T22:14:35.346Z,1.30
2023-02-26T22:17:02.325Z,1.33
2023-02-26T22:19:29.201Z,1.20
2023-02-26T22:21:55.865Z,1.25
2023-02-26T22:24:22.661Z,1.20
2023-02-26T22:26:49.715Z,1.33
2023-02-26T22:29:19.205Z,1.23
2023-02-26T22:31:47.327Z,1.50
2023-02-26T22:34:14.111Z,1.42
2023-02-26T22:36:40.698Z,0.75
2023-02-26T22:39:07.557Z,0.90
2023-02-26T22:41:35.925Z,0.90
2023-02-26T22:44:03.209Z,1.17
2023-02-26T22:46:29.939Z,1.00
2023-02-26T22:48:57.242Z,1.02
2023-02-26T22:51:24.142Z,0.88
2023-02-26T22:53:51.095Z,1.23
2023-02-26T22:56:18.373Z,1.02
2023-02-26T22:58:45.204Z,1.70
2023-02-26T23:01:12.285Z,0.95
2023-02-26T23:03:39.235Z,2.33
2023-02-26T23:06:06.546Z,1.45
2023-02-26T23:08:33.294Z,2.03
2023-02-26T23:11:02.014Z,1.02
2023-02-26T23:13:30.769Z,2.20
2023-02-26T23:15:58.010Z,2.13
2023-02-26T23:18:24.814Z,1.63
2023-02-26T23:20:51.411Z,0.85
2023-02-26T23:23:18.348Z,1.73
2023-02-26T23:25:45.156Z,1.80
2023-02-26T23:28:11.935Z,1.30
2023-02-26T23:30:39.369Z,1.02
2023-02-26T23:33:07.457Z,0.88
2023-02-26T23:35:35.082Z,1.35
2023-02-26T23:38:02.228Z,1.02
2023-02-26T23:40:29.521Z,1.17
2023-02-26T23:42:56.215Z,1.30
2023-02-26T23:45:23.088Z,1.38
2023-02-26T23:47:49.926Z,1.05
2023-02-26T23:50:16.957Z,1.15
2023-02-26T23:52:43.670Z,1.13
2023-02-26T23:55:11.159Z,0.98
2023-02-26T23:57:37.848Z,0.98
